Terminal Aerodrome Forecast
Issued by NWS

Home | Current Version | Previous Version | Text Only | Print | Product List | Glossary On
Versions: 1 2 3 4 5 6 7 8 9 10 11 12 13 14 15 16 17 18
000
FTUS43 KDDC 251720
TAFHYS
TAF
KHYS 251720Z 2518/2618 VRB06KT P6SM SKC
     FM252300 12006KT P6SM SKC
     FM261100 VRB05KT 5SM BR SKC=

USA.gov is the U.S. government's official web portal to all federal, state and local government web resources and services.